Cinderella 1 — SBLK — position and weather

sailwx.info

Track history (hours):
 
Tides and Currents Weather Stations Pressure Air Temp Water Temp Dewpoint Dewpoint Depression Visibility Wind Speed Wind Dir Waves Ship Positions

Cinderella 1

Last reported at 2016-Aug-27 21:33 UTC. Time now 2016-Aug-27 22:15 UTC.
Position N 59°20' E 018°05'.

Length 42 m; draft 1.1 m.

Type: Passenger vessel. MMSI: 265524530.

Date/timePositionNaut miles runAvg speedWind from/ knotsBaromVisibWave heightAir tempDewpointWater temp
2016-Aug-27 21:33N 59°20' E 018°05'0 0.0
2016-Aug-27 20:33N 59°20' E 018°05'0 0.0
2016-Aug-27 19:33N 59°20' E 018°05'8 8.3
2016-Aug-27 18:33N 59°23' E 018°20'3 0.8
2016-Aug-27 14:33N 59°21' E 018°14'2 2.2
2016-Aug-27 13:34N 59°20' E 018°11'2 0.5
2016-Aug-27 08:33N 59°21' E 018°14'5 5.2
2016-Aug-27 07:33N 59°20' E 018°05'0 0.0
2016-Aug-27 03:34N 59°20' E 018°05'0 0.0
2016-Aug-27 02:34N 59°20' E 018°05'0 0.0
2016-Aug-27 01:34N 59°20' E 018°05'0 0.0
2016-Aug-27 00:33N 59°20' E 018°05'0 0.0
2016-Aug-26 23:33N 59°20' E 018°05'0 0.0
2016-Aug-26 22:33N 59°20' E 018°05'0 0.0
2016-Aug-26 21:33N 59°20' E 018°05'0 0.4
2016-Aug-26 20:33N 59°20' E 018°05'8 1.8
2016-Aug-26 16:09N 59°23' E 018°20'813.5
2016-Aug-26 15:33N 59°20' E 018°05'9 8.9
2016-Aug-26 14:31N 59°24' E 018°21'3 0.8
2016-Aug-26 10:33N 59°22' E 018°16'6 6.2
2016-Aug-26 09:33N 59°20' E 018°05'0 0.0
2016-Aug-26 08:33N 59°20' E 018°05'0 0.0
2016-Aug-26 07:33N 59°20' E 018°05'0 0.0
2016-Aug-26 06:33N 59°20' E 018°05'0 0.0
2016-Aug-26 04:33N 59°20' E 018°05'0 0.0
2016-Aug-26 03:33N 59°20' E 018°05'0 0.0
2016-Aug-26 02:33N 59°20' E 018°05'0 0.0
2016-Aug-26 01:33N 59°20' E 018°05'0 0.0
2016-Aug-26 00:33N 59°20' E 018°05'0 0.0
2016-Aug-25 23:33N 59°20' E 018°05'0 0.0
2016-Aug-25 22:33N 59°20' E 018°05'0 0.0
2016-Aug-25 21:33N 59°20' E 018°05'0 0.0
2016-Aug-25 20:33N 59°20' E 018°05'5 5.0
2016-Aug-25 19:33N 59°21' E 018°14'5 1.2
2016-Aug-25 15:33N 59°20' E 018°05'3 0.6
2016-Aug-25 10:22N 59°20' E 018°11'3 3.5
2016-Aug-25 09:26N 59°20' E 018°05'0 0.0
2016-Aug-25 08:29N 59°20' E 018°05'0 0.0
2016-Aug-25 07:32N 59°20' E 018°05'0 0.0
2016-Aug-25 06:13N 59°20' E 018°05'0 0.0
2016-Aug-25 04:33N 59°20' E 018°05'0 0.0
2016-Aug-25 03:34N 59°20' E 018°05'0 0.0
2016-Aug-25 02:34N 59°20' E 018°05'0 0.0
2016-Aug-25 01:33N 59°20' E 018°05'0 0.0
2016-Aug-25 00:33N 59°20' E 018°05'0 0.0
2016-Aug-24 23:33N 59°20' E 018°05'0 0.0
2016-Aug-24 22:33N 59°20' E 018°05'0 0.0
2016-Aug-24 21:34N 59°20' E 018°05'0 0.0
2016-Aug-24 20:33N 59°20' E 018°05'4 4.5
2016-Aug-24 19:34N 59°21' E 018°13'4 1.3
2016-Aug-24 16:11N 59°23' E 018°20'813.7
2016-Aug-24 15:33N 59°20' E 018°05'9 8.5
2016-Aug-24 14:29N 59°24' E 018°21'6 2.1
2016-Aug-24 11:30N 59°24' E 018°34'1010.3
2016-Aug-24 10:34N 59°22' E 018°15'6 5.7
2016-Aug-24 09:33N 59°20' E 018°05'0 0.0
2016-Aug-24 08:33N 59°20' E 018°05'0 0.0
2016-Aug-24 07:33N 59°20' E 018°05'0 0.0
2016-Aug-24 06:33N 59°20' E 018°05'0 0.0
2016-Aug-24 04:33N 59°20' E 018°05'0 0.0
2016-Aug-24 03:33N 59°20' E 018°05'0 0.0
2016-Aug-24 02:33N 59°20' E 018°05'0 0.0
2016-Aug-24 01:33N 59°20' E 018°05'0 0.0
2016-Aug-24 00:33N 59°20' E 018°05'0 0.0
2016-Aug-23 23:33N 59°20' E 018°05'0 0.0
2016-Aug-23 22:33N 59°20' E 018°05'0 0.0
2016-Aug-23 21:33N 59°20' E 018°05'0 0.0
2016-Aug-23 20:33N 59°20' E 018°05'5 4.7
2016-Aug-23 19:33N 59°21' E 018°14'16 6.6
2016-Aug-23 17:10N 59°26' E 018°43'1211.6
2016-Aug-23 16:07N 59°23' E 018°20'814.4
2016-Aug-23 15:33N 59°20' E 018°05'7 7.4
2016-Aug-23 14:34N 59°23' E 018°18'1111.2
2016-Aug-23 13:33N 59°26' E 018°39'1 0.4
2016-Aug-23 11:34N 59°26' E 018°38'1211.7
2016-Aug-23 10:33N 59°22' E 018°16'6 6.4
2016-Aug-23 09:34N 59°20' E 018°05'0 0.0
2016-Aug-23 08:33N 59°20' E 018°05'0 0.0
2016-Aug-23 07:34N 59°20' E 018°05'0 0.0
2016-Aug-23 06:34N 59°20' E 018°05'0 0.0
2016-Aug-23 05:34N 59°20' E 018°05'0 0.0
2016-Aug-23 04:34N 59°20' E 018°05'0 0.0
2016-Aug-23 03:34N 59°20' E 018°05'0 0.0
2016-Aug-23 02:33N 59°20' E 018°05'0 0.0
2016-Aug-23 01:34N 59°20' E 018°05'0 0.0
2016-Aug-23 00:34N 59°20' E 018°05'0 0.0
2016-Aug-22 23:34N 59°20' E 018°05'0 0.0
2016-Aug-22 22:34N 59°20' E 018°05'0 0.0
2016-Aug-22 21:34N 59°20' E 018°05'0 0.0
2016-Aug-22 20:33N 59°20' E 018°05'3 3.4
2016-Aug-22 19:34N 59°20' E 018°11'2210.8
2016-Aug-22 17:34N 59°29' E 018°50'1511.7
2016-Aug-22 16:15N 59°24' E 018°21'913.3
2016-Aug-22 15:33N 59°20' E 018°05'5 5.1
2016-Aug-22 14:33N 59°22' E 018°15'1813.9
2016-Aug-22 13:14N 59°25' E 018°50'3 4.0
2016-Aug-22 12:32N 59°27' E 018°54'8 8.1
2016-Aug-22 11:34N 59°26' E 018°39'1212.2
2016-Aug-22 10:33N 59°22' E 018°16'6 6.0
2016-Aug-22 09:33N 59°20' E 018°05'0 0.0
2016-Aug-22 08:33N 59°20' E 018°05'0 0.0
2016-Aug-22 07:33N 59°20' E 018°05'0 0.0
2016-Aug-22 06:33N 59°20' E 018°05'9 0.6
2016-Aug-21 13:33N 59°24' E 018°21'3 0.6
2016-Aug-21 08:33N 59°22' E 018°17'7 6.7
2016-Aug-21 07:33N 59°20' E 018°05'0 0.0
2016-Aug-21 06:33N 59°20' E 018°05'0 0.0
2016-Aug-21 05:33N 59°20' E 018°05'0 0.0
2016-Aug-21 04:33N 59°20' E 018°05'0 0.0
2016-Aug-21 03:33N 59°20' E 018°05'0 0.0
2016-Aug-21 02:33N 59°20' E 018°05'0 0.0
2016-Aug-21 01:33N 59°20' E 018°05'0 0.0
2016-Aug-21 00:33N 59°20' E 018°05'0 0.0
2016-Aug-20 23:33N 59°20' E 018°05'0 0.0
2016-Aug-20 22:33N 59°20' E 018°05'0 0.0
2016-Aug-20 21:34N 59°20' E 018°05'0 0.0
2016-Aug-20 20:33N 59°20' E 018°05'2 2.3
2016-Aug-20 19:33N 59°19' E 018°09'7 1.6
2016-Aug-20 15:27N 59°23' E 018°20'8 9.4
2016-Aug-20 14:33N 59°20' E 018°05'1110.5
2016-Aug-20 13:29N 59°26' E 018°23'6 1.2
2016-Aug-20 08:33N 59°22' E 018°15'6 5.6
2016-Aug-20 07:34N 59°20' E 018°05'0 0.0
2016-Aug-20 06:33N 59°20' E 018°05'0 0.0
2016-Aug-20 05:33N 59°20' E 018°05'0 0.0
2016-Aug-20 04:33N 59°20' E 018°05'0 0.0
2016-Aug-20 03:33N 59°20' E 018°05'0 0.0
2016-Aug-20 02:33N 59°20' E 018°05'0 0.0
2016-Aug-20 01:33N 59°20' E 018°05'0 0.0
2016-Aug-20 00:33N 59°20' E 018°05'0 0.0
2016-Aug-19 23:33N 59°20' E 018°05'0 0.0
2016-Aug-19 22:33N 59°20' E 018°05'0 0.0
2016-Aug-19 21:33N 59°20' E 018°05'0 0.1
2016-Aug-19 20:33N 59°20' E 018°05'8 1.8
2016-Aug-19 16:09N 59°23' E 018°20'813.3
2016-Aug-19 15:34N 59°20' E 018°05'1 0.5
2016-Aug-19 14:33N 59°20' E 018°05'9 8.9
2016-Aug-19 13:31N 59°24' E 018°21'2 0.5
2016-Aug-19 08:33N 59°23' E 018°17'7 6.9
2016-Aug-19 07:33N 59°20' E 018°05'0 0.0
2016-Aug-19 06:33N 59°20' E 018°05'0 0.0
2016-Aug-19 05:33N 59°20' E 018°05'0 0.0
2016-Aug-19 04:33N 59°20' E 018°05'0 0.0
2016-Aug-19 03:33N 59°20' E 018°05'0 0.0
2016-Aug-19 02:33N 59°20' E 018°05'0 0.0
2016-Aug-19 01:33N 59°20' E 018°05'0 0.0
2016-Aug-19 00:33N 59°20' E 018°05'0 0.0
2016-Aug-18 23:33N 59°20' E 018°05'0 0.0
2016-Aug-18 22:33N 59°20' E 018°05'0 0.0
2016-Aug-18 21:33N 59°20' E 018°05'0 0.0
2016-Aug-18 20:34N 59°20' E 018°05'8 1.8
2016-Aug-18 16:07N 59°23' E 018°19'813.9
2016-Aug-18 15:34N 59°19' E 018°05'1 0.4
2016-Aug-18 14:17N 59°20' E 018°05'3 0.6
2016-Aug-18 08:20N 59°20' E 018°11'3 3.8
2016-Aug-18 07:28N 59°20' E 018°05'0 0.0
2016-Aug-18 06:33N 59°20' E 018°05'0 0.0
2016-Aug-18 05:28N 59°20' E 018°05'0 0.0
2016-Aug-18 04:31N 59°20' E 018°05'0 0.0
2016-Aug-18 03:33N 59°20' E 018°05'0 0.0
2016-Aug-18 02:34N 59°20' E 018°05'0 0.0
2016-Aug-18 01:33N 59°20' E 018°05'0 0.0
2016-Aug-18 00:33N 59°20' E 018°05'0 0.0
2016-Aug-17 23:33N 59°20' E 018°05'0 0.0
2016-Aug-17 22:32N 59°20' E 018°05'  
Track history (hours):
 
Tides and Currents Weather Stations Pressure Air Temp Water Temp Dewpoint Dewpoint Depression Visibility Wind Speed Wind Dir Waves Ship Positions

Cinderella 1

Last reported at 2016-Aug-27 21:33 UTC. Time now 2016-Aug-27 22:15 UTC.
Position N 59°20' E 018°05'.

Length 42 m; draft 1.1 m.

Type: Passenger vessel. MMSI: 265524530.

Date/timePositionNaut miles runAvg speedWind from/ knotsBaromVisibWave heightAir tempDewpointWater temp
2016-Aug-27 21:33N 59°20' E 018°05'0 0.0
2016-Aug-27 20:33N 59°20' E 018°05'0 0.0
2016-Aug-27 19:33N 59°20' E 018°05'8 8.3
2016-Aug-27 18:33N 59°23' E 018°20'3 0.8
2016-Aug-27 14:33N 59°21' E 018°14'2 2.2
2016-Aug-27 13:34N 59°20' E 018°11'2 0.5
2016-Aug-27 08:33N 59°21' E 018°14'5 5.2
2016-Aug-27 07:33N 59°20' E 018°05'0 0.0
2016-Aug-27 03:34N 59°20' E 018°05'0 0.0
2016-Aug-27 02:34N 59°20' E 018°05'0 0.0
2016-Aug-27 01:34N 59°20' E 018°05'0 0.0
2016-Aug-27 00:33N 59°20' E 018°05'0 0.0
2016-Aug-26 23:33N 59°20' E 018°05'0 0.0
2016-Aug-26 22:33N 59°20' E 018°05'0 0.0
2016-Aug-26 21:33N 59°20' E 018°05'0 0.4
2016-Aug-26 20:33N 59°20' E 018°05'8 1.8
2016-Aug-26 16:09N 59°23' E 018°20'813.5
2016-Aug-26 15:33N 59°20' E 018°05'9 8.9
2016-Aug-26 14:31N 59°24' E 018°21'3 0.8
2016-Aug-26 10:33N 59°22' E 018°16'6 6.2
2016-Aug-26 09:33N 59°20' E 018°05'0 0.0
2016-Aug-26 08:33N 59°20' E 018°05'0 0.0
2016-Aug-26 07:33N 59°20' E 018°05'0 0.0
2016-Aug-26 06:33N 59°20' E 018°05'0 0.0
2016-Aug-26 04:33N 59°20' E 018°05'0 0.0
2016-Aug-26 03:33N 59°20' E 018°05'0 0.0
2016-Aug-26 02:33N 59°20' E 018°05'0 0.0
2016-Aug-26 01:33N 59°20' E 018°05'0 0.0
2016-Aug-26 00:33N 59°20' E 018°05'0 0.0
2016-Aug-25 23:33N 59°20' E 018°05'0 0.0
2016-Aug-25 22:33N 59°20' E 018°05'0 0.0
2016-Aug-25 21:33N 59°20' E 018°05'0 0.0
2016-Aug-25 20:33N 59°20' E 018°05'5 5.0
2016-Aug-25 19:33N 59°21' E 018°14'5 1.2
2016-Aug-25 15:33N 59°20' E 018°05'3 0.6
2016-Aug-25 10:22N 59°20' E 018°11'3 3.5
2016-Aug-25 09:26N 59°20' E 018°05'0 0.0
2016-Aug-25 08:29N 59°20' E 018°05'0 0.0
2016-Aug-25 07:32N 59°20' E 018°05'0 0.0
2016-Aug-25 06:13N 59°20' E 018°05'0 0.0
2016-Aug-25 04:33N 59°20' E 018°05'0 0.0
2016-Aug-25 03:34N 59°20' E 018°05'0 0.0
2016-Aug-25 02:34N 59°20' E 018°05'0 0.0
2016-Aug-25 01:33N 59°20' E 018°05'0 0.0
2016-Aug-25 00:33N 59°20' E 018°05'0 0.0
2016-Aug-24 23:33N 59°20' E 018°05'0 0.0
2016-Aug-24 22:33N 59°20' E 018°05'0 0.0
2016-Aug-24 21:34N 59°20' E 018°05'0 0.0
2016-Aug-24 20:33N 59°20' E 018°05'4 4.5
2016-Aug-24 19:34N 59°21' E 018°13'4 1.3
2016-Aug-24 16:11N 59°23' E 018°20'813.7
2016-Aug-24 15:33N 59°20' E 018°05'9 8.5
2016-Aug-24 14:29N 59°24' E 018°21'6 2.1
2016-Aug-24 11:30N 59°24' E 018°34'1010.3
2016-Aug-24 10:34N 59°22' E 018°15'6 5.7
2016-Aug-24 09:33N 59°20' E 018°05'0 0.0
2016-Aug-24 08:33N 59°20' E 018°05'0 0.0
2016-Aug-24 07:33N 59°20' E 018°05'0 0.0
2016-Aug-24 06:33N 59°20' E 018°05'0 0.0
2016-Aug-24 04:33N 59°20' E 018°05'0 0.0
2016-Aug-24 03:33N 59°20' E 018°05'0 0.0
2016-Aug-24 02:33N 59°20' E 018°05'0 0.0
2016-Aug-24 01:33N 59°20' E 018°05'0 0.0
2016-Aug-24 00:33N 59°20' E 018°05'0 0.0
2016-Aug-23 23:33N 59°20' E 018°05'0 0.0
2016-Aug-23 22:33N 59°20' E 018°05'0 0.0
2016-Aug-23 21:33N 59°20' E 018°05'0 0.0
2016-Aug-23 20:33N 59°20' E 018°05'5 4.7
2016-Aug-23 19:33N 59°21' E 018°14'16 6.6
2016-Aug-23 17:10N 59°26' E 018°43'1211.6
2016-Aug-23 16:07N 59°23' E 018°20'814.4
2016-Aug-23 15:33N 59°20' E 018°05'7 7.4
2016-Aug-23 14:34N 59°23' E 018°18'1111.2
2016-Aug-23 13:33N 59°26' E 018°39'1 0.4
2016-Aug-23 11:34N 59°26' E 018°38'1211.7
2016-Aug-23 10:33N 59°22' E 018°16'6 6.4
2016-Aug-23 09:34N 59°20' E 018°05'0 0.0
2016-Aug-23 08:33N 59°20' E 018°05'0 0.0
2016-Aug-23 07:34N 59°20' E 018°05'0 0.0
2016-Aug-23 06:34N 59°20' E 018°05'0 0.0
2016-Aug-23 05:34N 59°20' E 018°05'0 0.0
2016-Aug-23 04:34N 59°20' E 018°05'0 0.0
2016-Aug-23 03:34N 59°20' E 018°05'0 0.0
2016-Aug-23 02:33N 59°20' E 018°05'0 0.0
2016-Aug-23 01:34N 59°20' E 018°05'0 0.0
2016-Aug-23 00:34N 59°20' E 018°05'0 0.0
2016-Aug-22 23:34N 59°20' E 018°05'0 0.0
2016-Aug-22 22:34N 59°20' E 018°05'0 0.0
2016-Aug-22 21:34N 59°20' E 018°05'0 0.0
2016-Aug-22 20:33N 59°20' E 018°05'3 3.4
2016-Aug-22 19:34N 59°20' E 018°11'2210.8
2016-Aug-22 17:34N 59°29' E 018°50'1511.7
2016-Aug-22 16:15N 59°24' E 018°21'913.3
2016-Aug-22 15:33N 59°20' E 018°05'5 5.1
2016-Aug-22 14:33N 59°22' E 018°15'1813.9
2016-Aug-22 13:14N 59°25' E 018°50'3 4.0
2016-Aug-22 12:32N 59°27' E 018°54'8 8.1
2016-Aug-22 11:34N 59°26' E 018°39'1212.2
2016-Aug-22 10:33N 59°22' E 018°16'6 6.0
2016-Aug-22 09:33N 59°20' E 018°05'0 0.0
2016-Aug-22 08:33N 59°20' E 018°05'0 0.0
2016-Aug-22 07:33N 59°20' E 018°05'0 0.0
2016-Aug-22 06:33N 59°20' E 018°05'9 0.6
2016-Aug-21 13:33N 59°24' E 018°21'3 0.6
2016-Aug-21 08:33N 59°22' E 018°17'7 6.7
2016-Aug-21 07:33N 59°20' E 018°05'0 0.0
2016-Aug-21 06:33N 59°20' E 018°05'0 0.0
2016-Aug-21 05:33N 59°20' E 018°05'0 0.0
2016-Aug-21 04:33N 59°20' E 018°05'0 0.0
2016-Aug-21 03:33N 59°20' E 018°05'0 0.0
2016-Aug-21 02:33N 59°20' E 018°05'0 0.0
2016-Aug-21 01:33N 59°20' E 018°05'0 0.0
2016-Aug-21 00:33N 59°20' E 018°05'0 0.0
2016-Aug-20 23:33N 59°20' E 018°05'0 0.0
2016-Aug-20 22:33N 59°20' E 018°05'0 0.0
2016-Aug-20 21:34N 59°20' E 018°05'0 0.0
2016-Aug-20 20:33N 59°20' E 018°05'2 2.3
2016-Aug-20 19:33N 59°19' E 018°09'7 1.6
2016-Aug-20 15:27N 59°23' E 018°20'8 9.4
2016-Aug-20 14:33N 59°20' E 018°05'1110.5
2016-Aug-20 13:29N 59°26' E 018°23'6 1.2
2016-Aug-20 08:33N 59°22' E 018°15'6 5.6
2016-Aug-20 07:34N 59°20' E 018°05'0 0.0
2016-Aug-20 06:33N 59°20' E 018°05'0 0.0
2016-Aug-20 05:33N 59°20' E 018°05'0 0.0
2016-Aug-20 04:33N 59°20' E 018°05'0 0.0
2016-Aug-20 03:33N 59°20' E 018°05'0 0.0
2016-Aug-20 02:33N 59°20' E 018°05'0 0.0
2016-Aug-20 01:33N 59°20' E 018°05'0 0.0
2016-Aug-20 00:33N 59°20' E 018°05'0 0.0
2016-Aug-19 23:33N 59°20' E 018°05'0 0.0
2016-Aug-19 22:33N 59°20' E 018°05'0 0.0
2016-Aug-19 21:33N 59°20' E 018°05'0 0.1
2016-Aug-19 20:33N 59°20' E 018°05'8 1.8
2016-Aug-19 16:09N 59°23' E 018°20'813.3
2016-Aug-19 15:34N 59°20' E 018°05'1 0.5
2016-Aug-19 14:33N 59°20' E 018°05'9 8.9
2016-Aug-19 13:31N 59°24' E 018°21'2 0.5
2016-Aug-19 08:33N 59°23' E 018°17'7 6.9
2016-Aug-19 07:33N 59°20' E 018°05'0 0.0
2016-Aug-19 06:33N 59°20' E 018°05'0 0.0
2016-Aug-19 05:33N 59°20' E 018°05'0 0.0
2016-Aug-19 04:33N 59°20' E 018°05'0 0.0
2016-Aug-19 03:33N 59°20' E 018°05'0 0.0
2016-Aug-19 02:33N 59°20' E 018°05'0 0.0
2016-Aug-19 01:33N 59°20' E 018°05'0 0.0
2016-Aug-19 00:33N 59°20' E 018°05'0 0.0
2016-Aug-18 23:33N 59°20' E 018°05'0 0.0
2016-Aug-18 22:33N 59°20' E 018°05'0 0.0
2016-Aug-18 21:33N 59°20' E 018°05'0 0.0
2016-Aug-18 20:34N 59°20' E 018°05'8 1.8
2016-Aug-18 16:07N 59°23' E 018°19'813.9
2016-Aug-18 15:34N 59°19' E 018°05'1 0.4
2016-Aug-18 14:17N 59°20' E 018°05'3 0.6
2016-Aug-18 08:20N 59°20' E 018°11'3 3.8
2016-Aug-18 07:28N 59°20' E 018°05'0 0.0
2016-Aug-18 06:33N 59°20' E 018°05'0 0.0
2016-Aug-18 05:28N 59°20' E 018°05'0 0.0
2016-Aug-18 04:31N 59°20' E 018°05'0 0.0
2016-Aug-18 03:33N 59°20' E 018°05'0 0.0
2016-Aug-18 02:34N 59°20' E 018°05'0 0.0
2016-Aug-18 01:33N 59°20' E 018°05'0 0.0
2016-Aug-18 00:33N 59°20' E 018°05'0 0.0
2016-Aug-17 23:33N 59°20' E 018°05'0 0.0
2016-Aug-17 22:32N 59°20' E 018°05'  

Dump ship's entire track history